<?xml version="1.0" encoding="UTF-8" standalone="no" ?>
<gpx xmlns="http://www.topografix.com/GPX/1/1" xmlns:xsi="http://www.w3.org/2001/XMLSchema-instance" xsi:schemaLocation="http://www.topografix.com/GPX/1/1 http://www.topografix.com/GPX/1/1/gpx.xsd" version="1.1" creator="VisuGPX - https://www.visugpx.com">
  <metadata>
    <name>Premier entraînement avec Rebecca</name>
    <desc><![CDATA[c'est la reprise... un petit aller retour à Uberstrass pour se décrasser.]]></desc>
  </metadata>
  <wpt lat="47.54202" lon="7.17014">
    <ele>295.66</ele>
    <name><![CDATA[0000001]]></name>
    <type><![CDATA[Point de départ]]></type>
  </wpt>
  <wpt lat="47.54144" lon="7.17087">
    <ele>377.87</ele>
    <name><![CDATA[0000002]]></name>
    <desc><![CDATA[<p><br /><h3>Nom: Segment: 1</h3><br />Heure de départ: 01/10/2018 12:19<br/>Heure d'arrivée: 01/10/2018 13:28<br/>Distance: 5,7km (01:09)<br/>Temps déplacement: 01:05<br/>Vitesse moyenne: 4,98 km/h<br/>Vitesse moyenne mouv.: 5,27 km/h<br/>Vitesse Max.: 8,89 km/h<br/>Altitude minimale: 295 m<br/>Altitude maximale: 384 m<br/>Vitesse de montée: 251 m/h<br/>Vitesse de descente: -193 m/h<br/>Gain d'altitude: 139 m<br/>Perte d'altitude: -66 m<br/>Temps de montée: 00:33<br/>Temps de descente: 00:20<br/></p>]]></desc>
    <type><![CDATA[Point d'arrivée]]></type>
  </wpt>
  <trk>
    <name><![CDATA[2018-01-10 12:19]]></name>
    <desc><![CDATA[<p>Heure de départ: 01/10/2018 12:19<br/>Heure d'arrivée: 01/10/2018 13:28<br/>Distance: 5,7 km (01:09)<br/>Temps déplacement: 01:05<br/>Vitesse moyenne: 4,98 km/h<br/>Vitesse moyenne mouv.: 5,27 km/h<br/>Vitesse Max.: 8,89 km/h<br/>Altitude minimale: 295 m<br/>Altitude maximale: 384 m<br/>Vitesse de montée: 170,8 m/h<br/>Vitesse de descente: -155,7 m/h<br/>Gain d'altitude: 120 m<br/>Perte d'altitude: -62 m<br/>Temps de montée: 00:42<br/>Temps de descente: 00:24<br/></p><hr align="center" width="480" style="height: 2px; width: 517px"/>]]></desc>
    <trkseg>
      <trkpt lat="47.54202" lon="7.17014">
        <ele>295.66</ele>
        <time>2018-01-10T11:19:25Z</time>
      </trkpt>
      <trkpt lat="47.54184" lon="7.17012">
        <ele>335.48</ele>
        <time>2018-01-10T11:21:23Z</time>
      </trkpt>
      <trkpt lat="47.54198" lon="7.17027">
        <ele>341.18</ele>
        <time>2018-01-10T11:22:43Z</time>
      </trkpt>
      <trkpt lat="47.54181" lon="7.17017">
        <ele>349.62</ele>
        <time>2018-01-10T11:23:29Z</time>
      </trkpt>
      <trkpt lat="47.54175" lon="7.16989">
        <ele>341.64</ele>
        <time>2018-01-10T11:25:13Z</time>
      </trkpt>
      <trkpt lat="47.54158" lon="7.17005">
        <ele>368.44</ele>
        <time>2018-01-10T11:25:31Z</time>
      </trkpt>
      <trkpt lat="47.54154" lon="7.17032">
        <ele>368.8</ele>
        <time>2018-01-10T11:25:45Z</time>
      </trkpt>
      <trkpt lat="47.54155" lon="7.17061">
        <ele>368.79</ele>
        <time>2018-01-10T11:26:13Z</time>
      </trkpt>
      <trkpt lat="47.54137" lon="7.17056">
        <ele>369.52</ele>
        <time>2018-01-10T11:30:57Z</time>
      </trkpt>
      <trkpt lat="47.54118" lon="7.17064">
        <ele>371.83</ele>
        <time>2018-01-10T11:31:11Z</time>
      </trkpt>
      <trkpt lat="47.54104" lon="7.17081">
        <ele>369.62</ele>
        <time>2018-01-10T11:31:23Z</time>
      </trkpt>
      <trkpt lat="47.54092" lon="7.17102">
        <ele>370.76</ele>
        <time>2018-01-10T11:31:35Z</time>
      </trkpt>
      <trkpt lat="47.54077" lon="7.17118">
        <ele>371.09</ele>
        <time>2018-01-10T11:31:46Z</time>
      </trkpt>
      <trkpt lat="47.54065" lon="7.17141">
        <ele>370.09</ele>
        <time>2018-01-10T11:31:58Z</time>
      </trkpt>
      <trkpt lat="47.54055" lon="7.17167">
        <ele>369.81</ele>
        <time>2018-01-10T11:32:10Z</time>
      </trkpt>
      <trkpt lat="47.54044" lon="7.17192">
        <ele>368.79</ele>
        <time>2018-01-10T11:32:22Z</time>
      </trkpt>
      <trkpt lat="47.54035" lon="7.17215">
        <ele>369.47</ele>
        <time>2018-01-10T11:32:34Z</time>
      </trkpt>
      <trkpt lat="47.54022" lon="7.17234">
        <ele>370.47</ele>
        <time>2018-01-10T11:32:46Z</time>
      </trkpt>
      <trkpt lat="47.5401" lon="7.17255">
        <ele>373.48</ele>
        <time>2018-01-10T11:33:00Z</time>
      </trkpt>
      <trkpt lat="47.53991" lon="7.17244">
        <ele>374.79</ele>
        <time>2018-01-10T11:33:10Z</time>
      </trkpt>
      <trkpt lat="47.53974" lon="7.17235">
        <ele>374.01</ele>
        <time>2018-01-10T11:33:20Z</time>
      </trkpt>
      <trkpt lat="47.53953" lon="7.17229">
        <ele>373.79</ele>
        <time>2018-01-10T11:33:32Z</time>
      </trkpt>
      <trkpt lat="47.53934" lon="7.17238">
        <ele>372.81</ele>
        <time>2018-01-10T11:33:46Z</time>
      </trkpt>
      <trkpt lat="47.53924" lon="7.17261">
        <ele>372.82</ele>
        <time>2018-01-10T11:33:58Z</time>
      </trkpt>
      <trkpt lat="47.53911" lon="7.17286">
        <ele>373.49</ele>
        <time>2018-01-10T11:34:12Z</time>
      </trkpt>
      <trkpt lat="47.539" lon="7.17309">
        <ele>373.79</ele>
        <time>2018-01-10T11:34:24Z</time>
      </trkpt>
      <trkpt lat="47.53888" lon="7.17332">
        <ele>372.82</ele>
        <time>2018-01-10T11:34:36Z</time>
      </trkpt>
      <trkpt lat="47.53877" lon="7.17357">
        <ele>370.82</ele>
        <time>2018-01-10T11:34:48Z</time>
      </trkpt>
      <trkpt lat="47.53868" lon="7.17383">
        <ele>370.79</ele>
        <time>2018-01-10T11:35:02Z</time>
      </trkpt>
      <trkpt lat="47.53887" lon="7.17397">
        <ele>372.7</ele>
        <time>2018-01-10T11:35:18Z</time>
      </trkpt>
      <trkpt lat="47.53901" lon="7.17415">
        <ele>372.79</ele>
        <time>2018-01-10T11:35:30Z</time>
      </trkpt>
      <trkpt lat="47.53912" lon="7.17438">
        <ele>371.88</ele>
        <time>2018-01-10T11:35:42Z</time>
      </trkpt>
      <trkpt lat="47.53922" lon="7.17462">
        <ele>371.71</ele>
        <time>2018-01-10T11:35:54Z</time>
      </trkpt>
      <trkpt lat="47.53933" lon="7.17487">
        <ele>369.82</ele>
        <time>2018-01-10T11:36:06Z</time>
      </trkpt>
      <trkpt lat="47.53944" lon="7.17509">
        <ele>369.73</ele>
        <time>2018-01-10T11:36:18Z</time>
      </trkpt>
      <trkpt lat="47.53959" lon="7.17529">
        <ele>370.78</ele>
        <time>2018-01-10T11:36:32Z</time>
      </trkpt>
      <trkpt lat="47.53971" lon="7.1755">
        <ele>369.82</ele>
        <time>2018-01-10T11:36:44Z</time>
      </trkpt>
      <trkpt lat="47.53985" lon="7.17573">
        <ele>370.85</ele>
        <time>2018-01-10T11:36:56Z</time>
      </trkpt>
      <trkpt lat="47.54001" lon="7.17592">
        <ele>369.58</ele>
        <time>2018-01-10T11:37:10Z</time>
      </trkpt>
      <trkpt lat="47.54015" lon="7.17613">
        <ele>370.48</ele>
        <time>2018-01-10T11:37:23Z</time>
      </trkpt>
      <trkpt lat="47.54027" lon="7.17634">
        <ele>371.7</ele>
        <time>2018-01-10T11:37:35Z</time>
      </trkpt>
      <trkpt lat="47.54042" lon="7.17653">
        <ele>372.7</ele>
        <time>2018-01-10T11:37:47Z</time>
      </trkpt>
      <trkpt lat="47.54058" lon="7.1767">
        <ele>373.76</ele>
        <time>2018-01-10T11:37:59Z</time>
      </trkpt>
      <trkpt lat="47.54076" lon="7.17678">
        <ele>374.7</ele>
        <time>2018-01-10T11:38:11Z</time>
      </trkpt>
      <trkpt lat="47.54096" lon="7.17672">
        <ele>375.79</ele>
        <time>2018-01-10T11:38:25Z</time>
      </trkpt>
      <trkpt lat="47.54105" lon="7.17648">
        <ele>376.77</ele>
        <time>2018-01-10T11:38:39Z</time>
      </trkpt>
      <trkpt lat="47.54113" lon="7.1762">
        <ele>379.61</ele>
        <time>2018-01-10T11:38:53Z</time>
      </trkpt>
      <trkpt lat="47.54125" lon="7.17598">
        <ele>380.48</ele>
        <time>2018-01-10T11:39:05Z</time>
      </trkpt>
      <trkpt lat="47.54136" lon="7.17577">
        <ele>379.85</ele>
        <time>2018-01-10T11:39:17Z</time>
      </trkpt>
      <trkpt lat="47.54147" lon="7.17554">
        <ele>380.58</ele>
        <time>2018-01-10T11:39:29Z</time>
      </trkpt>
      <trkpt lat="47.54161" lon="7.17531">
        <ele>381.49</ele>
        <time>2018-01-10T11:39:41Z</time>
      </trkpt>
      <trkpt lat="47.54174" lon="7.17512">
        <ele>381.79</ele>
        <time>2018-01-10T11:39:53Z</time>
      </trkpt>
      <trkpt lat="47.54187" lon="7.17491">
        <ele>382.79</ele>
        <time>2018-01-10T11:40:05Z</time>
      </trkpt>
      <trkpt lat="47.54199" lon="7.17469">
        <ele>381.79</ele>
        <time>2018-01-10T11:40:15Z</time>
      </trkpt>
      <trkpt lat="47.54213" lon="7.17446">
        <ele>382.76</ele>
        <time>2018-01-10T11:40:27Z</time>
      </trkpt>
      <trkpt lat="47.54224" lon="7.17425">
        <ele>382.7</ele>
        <time>2018-01-10T11:40:41Z</time>
      </trkpt>
      <trkpt lat="47.54237" lon="7.174">
        <ele>382.58</ele>
        <time>2018-01-10T11:40:53Z</time>
      </trkpt>
      <trkpt lat="47.5425" lon="7.17382">
        <ele>382.77</ele>
        <time>2018-01-10T11:41:03Z</time>
      </trkpt>
      <trkpt lat="47.54261" lon="7.1736">
        <ele>382.79</ele>
        <time>2018-01-10T11:41:15Z</time>
      </trkpt>
      <trkpt lat="47.54276" lon="7.17339">
        <ele>383.78</ele>
        <time>2018-01-10T11:41:27Z</time>
      </trkpt>
      <trkpt lat="47.54288" lon="7.17318">
        <ele>384.09</ele>
        <time>2018-01-10T11:41:41Z</time>
      </trkpt>
      <trkpt lat="47.543" lon="7.17298">
        <ele>383.52</ele>
        <time>2018-01-10T11:41:51Z</time>
      </trkpt>
      <trkpt lat="47.54314" lon="7.17274">
        <ele>383.79</ele>
        <time>2018-01-10T11:42:03Z</time>
      </trkpt>
      <trkpt lat="47.54328" lon="7.17251">
        <ele>383.79</ele>
        <time>2018-01-10T11:42:15Z</time>
      </trkpt>
      <trkpt lat="47.54341" lon="7.17231">
        <ele>382.8</ele>
        <time>2018-01-10T11:42:25Z</time>
      </trkpt>
      <trkpt lat="47.54353" lon="7.17206">
        <ele>382.78</ele>
        <time>2018-01-10T11:42:37Z</time>
      </trkpt>
      <trkpt lat="47.54366" lon="7.17182">
        <ele>382.79</ele>
        <time>2018-01-10T11:42:49Z</time>
      </trkpt>
      <trkpt lat="47.54381" lon="7.1716">
        <ele>381.15</ele>
        <time>2018-01-10T11:43:05Z</time>
      </trkpt>
      <trkpt lat="47.54394" lon="7.17137">
        <ele>378.86</ele>
        <time>2018-01-10T11:43:17Z</time>
      </trkpt>
      <trkpt lat="47.54407" lon="7.17117">
        <ele>377.8</ele>
        <time>2018-01-10T11:43:29Z</time>
      </trkpt>
      <trkpt lat="47.54421" lon="7.17097">
        <ele>376.82</ele>
        <time>2018-01-10T11:43:39Z</time>
      </trkpt>
      <trkpt lat="47.54434" lon="7.17076">
        <ele>377.79</ele>
        <time>2018-01-10T11:43:49Z</time>
      </trkpt>
      <trkpt lat="47.54446" lon="7.17054">
        <ele>376.8</ele>
        <time>2018-01-10T11:44:01Z</time>
      </trkpt>
      <trkpt lat="47.54457" lon="7.17032">
        <ele>376.79</ele>
        <time>2018-01-10T11:44:11Z</time>
      </trkpt>
      <trkpt lat="47.5447" lon="7.17011">
        <ele>377.71</ele>
        <time>2018-01-10T11:44:25Z</time>
      </trkpt>
      <trkpt lat="47.54483" lon="7.16991">
        <ele>376.88</ele>
        <time>2018-01-10T11:44:37Z</time>
      </trkpt>
      <trkpt lat="47.54499" lon="7.16972">
        <ele>374.82</ele>
        <time>2018-01-10T11:44:51Z</time>
      </trkpt>
      <trkpt lat="47.54514" lon="7.16952">
        <ele>373.88</ele>
        <time>2018-01-10T11:45:03Z</time>
      </trkpt>
      <trkpt lat="47.5453" lon="7.16934">
        <ele>372.8</ele>
        <time>2018-01-10T11:45:15Z</time>
      </trkpt>
      <trkpt lat="47.54544" lon="7.16918">
        <ele>372.79</ele>
        <time>2018-01-10T11:45:25Z</time>
      </trkpt>
      <trkpt lat="47.54561" lon="7.16898">
        <ele>374.7</ele>
        <time>2018-01-10T11:45:39Z</time>
      </trkpt>
      <trkpt lat="47.54575" lon="7.16878">
        <ele>374.81</ele>
        <time>2018-01-10T11:45:49Z</time>
      </trkpt>
      <trkpt lat="47.54589" lon="7.16856">
        <ele>374.85</ele>
        <time>2018-01-10T11:46:01Z</time>
      </trkpt>
      <trkpt lat="47.54603" lon="7.16833">
        <ele>375.79</ele>
        <time>2018-01-10T11:46:13Z</time>
      </trkpt>
      <trkpt lat="47.54617" lon="7.16816">
        <ele>375.79</ele>
        <time>2018-01-10T11:46:23Z</time>
      </trkpt>
      <trkpt lat="47.54633" lon="7.16797">
        <ele>375.94</ele>
        <time>2018-01-10T11:46:35Z</time>
      </trkpt>
      <trkpt lat="47.54648" lon="7.16776">
        <ele>373.88</ele>
        <time>2018-01-10T11:46:51Z</time>
      </trkpt>
      <trkpt lat="47.54663" lon="7.16756">
        <ele>372.82</ele>
        <time>2018-01-10T11:47:01Z</time>
      </trkpt>
      <trkpt lat="47.54679" lon="7.16738">
        <ele>371.88</ele>
        <time>2018-01-10T11:47:13Z</time>
      </trkpt>
      <trkpt lat="47.54694" lon="7.16718">
        <ele>372.79</ele>
        <time>2018-01-10T11:47:23Z</time>
      </trkpt>
      <trkpt lat="47.54709" lon="7.16696">
        <ele>372.77</ele>
        <time>2018-01-10T11:47:37Z</time>
      </trkpt>
      <trkpt lat="47.54725" lon="7.16675">
        <ele>371.8</ele>
        <time>2018-01-10T11:47:49Z</time>
      </trkpt>
      <trkpt lat="47.54739" lon="7.16657">
        <ele>370.1</ele>
        <time>2018-01-10T11:47:59Z</time>
      </trkpt>
      <trkpt lat="47.54752" lon="7.16639">
        <ele>369.79</ele>
        <time>2018-01-10T11:48:11Z</time>
      </trkpt>
      <trkpt lat="47.54768" lon="7.16621">
        <ele>371.77</ele>
        <time>2018-01-10T11:48:23Z</time>
      </trkpt>
      <trkpt lat="47.54783" lon="7.16603">
        <ele>371.81</ele>
        <time>2018-01-10T11:48:35Z</time>
      </trkpt>
      <trkpt lat="47.54799" lon="7.16584">
        <ele>373.49</ele>
        <time>2018-01-10T11:48:45Z</time>
      </trkpt>
      <trkpt lat="47.54814" lon="7.16566">
        <ele>373.58</ele>
        <time>2018-01-10T11:48:59Z</time>
      </trkpt>
      <trkpt lat="47.54832" lon="7.16551">
        <ele>372.8</ele>
        <time>2018-01-10T11:49:09Z</time>
      </trkpt>
      <trkpt lat="47.5485" lon="7.16539">
        <ele>373.7</ele>
        <time>2018-01-10T11:49:19Z</time>
      </trkpt>
      <trkpt lat="47.54867" lon="7.16524">
        <ele>374.79</ele>
        <time>2018-01-10T11:49:29Z</time>
      </trkpt>
      <trkpt lat="47.54883" lon="7.16513">
        <ele>373.79</ele>
        <time>2018-01-10T11:49:39Z</time>
      </trkpt>
      <trkpt lat="47.54902" lon="7.16499">
        <ele>373.79</ele>
        <time>2018-01-10T11:49:51Z</time>
      </trkpt>
      <trkpt lat="47.54919" lon="7.16492">
        <ele>373.09</ele>
        <time>2018-01-10T11:50:05Z</time>
      </trkpt>
      <trkpt lat="47.54936" lon="7.16478">
        <ele>372.07</ele>
        <time>2018-01-10T11:50:19Z</time>
      </trkpt>
      <trkpt lat="47.54954" lon="7.16468">
        <ele>372.06</ele>
        <time>2018-01-10T11:50:29Z</time>
      </trkpt>
      <trkpt lat="47.54974" lon="7.16463">
        <ele>372.76</ele>
        <time>2018-01-10T11:50:41Z</time>
      </trkpt>
      <trkpt lat="47.54992" lon="7.16456">
        <ele>372.73</ele>
        <time>2018-01-10T11:50:51Z</time>
      </trkpt>
      <trkpt lat="47.55013" lon="7.16449">
        <ele>373.79</ele>
        <time>2018-01-10T11:51:05Z</time>
      </trkpt>
      <trkpt lat="47.55031" lon="7.16442">
        <ele>374.76</ele>
        <time>2018-01-10T11:51:15Z</time>
      </trkpt>
      <trkpt lat="47.55049" lon="7.16438">
        <ele>376.7</ele>
        <time>2018-01-10T11:51:25Z</time>
      </trkpt>
      <trkpt lat="47.5507" lon="7.16436">
        <ele>374.88</ele>
        <time>2018-01-10T11:51:37Z</time>
      </trkpt>
      <trkpt lat="47.55089" lon="7.16434">
        <ele>373.88</ele>
        <time>2018-01-10T11:51:49Z</time>
      </trkpt>
      <trkpt lat="47.55108" lon="7.16434">
        <ele>370.76</ele>
        <time>2018-01-10T11:51:59Z</time>
      </trkpt>
      <trkpt lat="47.55127" lon="7.16426">
        <ele>371.7</ele>
        <time>2018-01-10T11:52:12Z</time>
      </trkpt>
      <trkpt lat="47.55147" lon="7.16423">
        <ele>372.77</ele>
        <time>2018-01-10T11:52:24Z</time>
      </trkpt>
      <trkpt lat="47.55166" lon="7.16421">
        <ele>372.79</ele>
        <time>2018-01-10T11:52:32Z</time>
      </trkpt>
      <trkpt lat="47.55184" lon="7.16419">
        <ele>372.76</ele>
        <time>2018-01-10T11:52:44Z</time>
      </trkpt>
      <trkpt lat="47.55204" lon="7.16415">
        <ele>371.82</ele>
        <time>2018-01-10T11:52:56Z</time>
      </trkpt>
      <trkpt lat="47.55223" lon="7.16409">
        <ele>369.88</ele>
        <time>2018-01-10T11:53:06Z</time>
      </trkpt>
      <trkpt lat="47.55241" lon="7.16404">
        <ele>370.78</ele>
        <time>2018-01-10T11:53:16Z</time>
      </trkpt>
      <trkpt lat="47.55258" lon="7.16388">
        <ele>370.03</ele>
        <time>2018-01-10T11:53:30Z</time>
      </trkpt>
      <trkpt lat="47.55265" lon="7.16361">
        <ele>363.92</ele>
        <time>2018-01-10T11:53:44Z</time>
      </trkpt>
      <trkpt lat="47.55275" lon="7.16335">
        <ele>362.88</ele>
        <time>2018-01-10T11:53:54Z</time>
      </trkpt>
      <trkpt lat="47.55289" lon="7.16317">
        <ele>360.88</ele>
        <time>2018-01-10T11:54:04Z</time>
      </trkpt>
      <trkpt lat="47.55309" lon="7.16306">
        <ele>360.79</ele>
        <time>2018-01-10T11:54:16Z</time>
      </trkpt>
      <trkpt lat="47.55329" lon="7.16302">
        <ele>360.79</ele>
        <time>2018-01-10T11:54:28Z</time>
      </trkpt>
      <trkpt lat="47.55348" lon="7.163">
        <ele>359.79</ele>
        <time>2018-01-10T11:54:40Z</time>
      </trkpt>
      <trkpt lat="47.55366" lon="7.16295">
        <ele>359.79</ele>
        <time>2018-01-10T11:54:50Z</time>
      </trkpt>
      <trkpt lat="47.55387" lon="7.1629">
        <ele>359.09</ele>
        <time>2018-01-10T11:55:02Z</time>
      </trkpt>
      <trkpt lat="47.55408" lon="7.16285">
        <ele>358.79</ele>
        <time>2018-01-10T11:55:14Z</time>
      </trkpt>
      <trkpt lat="47.55428" lon="7.16282">
        <ele>359.78</ele>
        <time>2018-01-10T11:55:26Z</time>
      </trkpt>
      <trkpt lat="47.55448" lon="7.16278">
        <ele>358.88</ele>
        <time>2018-01-10T11:55:38Z</time>
      </trkpt>
      <trkpt lat="47.55467" lon="7.16272">
        <ele>358.79</ele>
        <time>2018-01-10T11:55:50Z</time>
      </trkpt>
      <trkpt lat="47.55487" lon="7.16267">
        <ele>357.88</ele>
        <time>2018-01-10T11:56:02Z</time>
      </trkpt>
      <trkpt lat="47.55478" lon="7.16241">
        <ele>356.79</ele>
        <time>2018-01-10T11:56:16Z</time>
      </trkpt>
      <trkpt lat="47.55486" lon="7.16265">
        <ele>354.81</ele>
        <time>2018-01-10T11:56:46Z</time>
      </trkpt>
      <trkpt lat="47.55467" lon="7.16278">
        <ele>355.72</ele>
        <time>2018-01-10T11:57:00Z</time>
      </trkpt>
      <trkpt lat="47.55448" lon="7.16282">
        <ele>356.79</ele>
        <time>2018-01-10T11:57:12Z</time>
      </trkpt>
      <trkpt lat="47.55427" lon="7.16287">
        <ele>357.79</ele>
        <time>2018-01-10T11:57:24Z</time>
      </trkpt>
      <trkpt lat="47.55406" lon="7.16291">
        <ele>358.79</ele>
        <time>2018-01-10T11:57:36Z</time>
      </trkpt>
      <trkpt lat="47.55388" lon="7.16294">
        <ele>359.49</ele>
        <time>2018-01-10T11:57:46Z</time>
      </trkpt>
      <trkpt lat="47.55369" lon="7.16297">
        <ele>358.88</ele>
        <time>2018-01-10T11:57:58Z</time>
      </trkpt>
      <trkpt lat="47.55349" lon="7.16303">
        <ele>359.79</ele>
        <time>2018-01-10T11:58:10Z</time>
      </trkpt>
      <trkpt lat="47.55329" lon="7.16306">
        <ele>360.48</ele>
        <time>2018-01-10T11:58:22Z</time>
      </trkpt>
      <trkpt lat="47.55311" lon="7.16312">
        <ele>359.88</ele>
        <time>2018-01-10T11:58:32Z</time>
      </trkpt>
      <trkpt lat="47.55292" lon="7.1632">
        <ele>358.79</ele>
        <time>2018-01-10T11:58:42Z</time>
      </trkpt>
      <trkpt lat="47.55276" lon="7.1634">
        <ele>359.78</ele>
        <time>2018-01-10T11:58:56Z</time>
      </trkpt>
      <trkpt lat="47.55268" lon="7.16369">
        <ele>359.72</ele>
        <time>2018-01-10T11:59:08Z</time>
      </trkpt>
      <trkpt lat="47.55263" lon="7.16397">
        <ele>359.79</ele>
        <time>2018-01-10T11:59:20Z</time>
      </trkpt>
      <trkpt lat="47.55251" lon="7.16418">
        <ele>361.48</ele>
        <time>2018-01-10T11:59:34Z</time>
      </trkpt>
      <trkpt lat="47.55233" lon="7.16423">
        <ele>363.78</ele>
        <time>2018-01-10T11:59:46Z</time>
      </trkpt>
      <trkpt lat="47.55214" lon="7.16429">
        <ele>364.51</ele>
        <time>2018-01-10T11:59:58Z</time>
      </trkpt>
      <trkpt lat="47.55194" lon="7.1643">
        <ele>364.79</ele>
        <time>2018-01-10T12:00:08Z</time>
      </trkpt>
      <trkpt lat="47.55174" lon="7.16436">
        <ele>364.79</ele>
        <time>2018-01-10T12:00:22Z</time>
      </trkpt>
      <trkpt lat="47.55155" lon="7.16436">
        <ele>365.51</ele>
        <time>2018-01-10T12:00:32Z</time>
      </trkpt>
      <trkpt lat="47.55136" lon="7.16443">
        <ele>365.81</ele>
        <time>2018-01-10T12:00:46Z</time>
      </trkpt>
      <trkpt lat="47.55115" lon="7.16448">
        <ele>366.79</ele>
        <time>2018-01-10T12:01:00Z</time>
      </trkpt>
      <trkpt lat="47.55096" lon="7.1645">
        <ele>368.4</ele>
        <time>2018-01-10T12:01:10Z</time>
      </trkpt>
      <trkpt lat="47.55076" lon="7.16449">
        <ele>370.76</ele>
        <time>2018-01-10T12:01:22Z</time>
      </trkpt>
      <trkpt lat="47.55056" lon="7.16455">
        <ele>372.78</ele>
        <time>2018-01-10T12:01:34Z</time>
      </trkpt>
      <trkpt lat="47.55036" lon="7.16458">
        <ele>372.79</ele>
        <time>2018-01-10T12:01:46Z</time>
      </trkpt>
      <trkpt lat="47.55017" lon="7.16464">
        <ele>373.79</ele>
        <time>2018-01-10T12:02:00Z</time>
      </trkpt>
      <trkpt lat="47.54999" lon="7.1647">
        <ele>374.49</ele>
        <time>2018-01-10T12:02:10Z</time>
      </trkpt>
      <trkpt lat="47.54979" lon="7.16477">
        <ele>374.06</ele>
        <time>2018-01-10T12:02:22Z</time>
      </trkpt>
      <trkpt lat="47.54961" lon="7.16484">
        <ele>374.7</ele>
        <time>2018-01-10T12:02:34Z</time>
      </trkpt>
      <trkpt lat="47.5494" lon="7.16493">
        <ele>376.69</ele>
        <time>2018-01-10T12:02:46Z</time>
      </trkpt>
      <trkpt lat="47.54919" lon="7.16504">
        <ele>376.09</ele>
        <time>2018-01-10T12:02:58Z</time>
      </trkpt>
      <trkpt lat="47.54902" lon="7.16514">
        <ele>375.81</ele>
        <time>2018-01-10T12:03:08Z</time>
      </trkpt>
      <trkpt lat="47.54883" lon="7.16526">
        <ele>376.79</ele>
        <time>2018-01-10T12:03:20Z</time>
      </trkpt>
      <trkpt lat="47.54863" lon="7.16539">
        <ele>375.8</ele>
        <time>2018-01-10T12:03:32Z</time>
      </trkpt>
      <trkpt lat="47.54845" lon="7.16552">
        <ele>375.72</ele>
        <time>2018-01-10T12:03:44Z</time>
      </trkpt>
      <trkpt lat="47.5483" lon="7.1657">
        <ele>375.08</ele>
        <time>2018-01-10T12:03:58Z</time>
      </trkpt>
      <trkpt lat="47.54812" lon="7.16586">
        <ele>375.78</ele>
        <time>2018-01-10T12:04:10Z</time>
      </trkpt>
      <trkpt lat="47.54797" lon="7.16604">
        <ele>376</ele>
        <time>2018-01-10T12:04:22Z</time>
      </trkpt>
      <trkpt lat="47.54784" lon="7.16623">
        <ele>376.49</ele>
        <time>2018-01-10T12:04:34Z</time>
      </trkpt>
      <trkpt lat="47.54769" lon="7.16639">
        <ele>377.57</ele>
        <time>2018-01-10T12:04:46Z</time>
      </trkpt>
      <trkpt lat="47.54754" lon="7.16658">
        <ele>375.91</ele>
        <time>2018-01-10T12:04:58Z</time>
      </trkpt>
      <trkpt lat="47.54742" lon="7.1668">
        <ele>375.73</ele>
        <time>2018-01-10T12:05:10Z</time>
      </trkpt>
      <trkpt lat="47.54728" lon="7.16695">
        <ele>375.5</ele>
        <time>2018-01-10T12:05:20Z</time>
      </trkpt>
      <trkpt lat="47.54711" lon="7.16713">
        <ele>375.76</ele>
        <time>2018-01-10T12:05:32Z</time>
      </trkpt>
      <trkpt lat="47.54698" lon="7.16732">
        <ele>377.76</ele>
        <time>2018-01-10T12:05:44Z</time>
      </trkpt>
      <trkpt lat="47.5468" lon="7.1675">
        <ele>377.73</ele>
        <time>2018-01-10T12:05:54Z</time>
      </trkpt>
      <trkpt lat="47.54666" lon="7.16774">
        <ele>377.49</ele>
        <time>2018-01-10T12:06:06Z</time>
      </trkpt>
      <trkpt lat="47.54651" lon="7.16795">
        <ele>376.82</ele>
        <time>2018-01-10T12:06:18Z</time>
      </trkpt>
      <trkpt lat="47.54637" lon="7.16811">
        <ele>375.82</ele>
        <time>2018-01-10T12:06:28Z</time>
      </trkpt>
      <trkpt lat="47.54621" lon="7.1683">
        <ele>375.7</ele>
        <time>2018-01-10T12:06:40Z</time>
      </trkpt>
      <trkpt lat="47.54607" lon="7.16849">
        <ele>376.79</ele>
        <time>2018-01-10T12:06:52Z</time>
      </trkpt>
      <trkpt lat="47.54594" lon="7.16868">
        <ele>376.79</ele>
        <time>2018-01-10T12:07:04Z</time>
      </trkpt>
      <trkpt lat="47.54579" lon="7.16885">
        <ele>380.37</ele>
        <time>2018-01-10T12:07:14Z</time>
      </trkpt>
      <trkpt lat="47.54564" lon="7.16904">
        <ele>379.8</ele>
        <time>2018-01-10T12:07:26Z</time>
      </trkpt>
      <trkpt lat="47.54551" lon="7.16927">
        <ele>381.48</ele>
        <time>2018-01-10T12:07:38Z</time>
      </trkpt>
      <trkpt lat="47.54537" lon="7.16947">
        <ele>381.79</ele>
        <time>2018-01-10T12:07:50Z</time>
      </trkpt>
      <trkpt lat="47.54522" lon="7.16964">
        <ele>381</ele>
        <time>2018-01-10T12:08:02Z</time>
      </trkpt>
      <trkpt lat="47.54508" lon="7.16984">
        <ele>380.52</ele>
        <time>2018-01-10T12:08:14Z</time>
      </trkpt>
      <trkpt lat="47.54492" lon="7.17004">
        <ele>379.79</ele>
        <time>2018-01-10T12:08:26Z</time>
      </trkpt>
      <trkpt lat="47.54479" lon="7.17024">
        <ele>378.88</ele>
        <time>2018-01-10T12:08:38Z</time>
      </trkpt>
      <trkpt lat="47.54465" lon="7.17042">
        <ele>378.78</ele>
        <time>2018-01-10T12:08:48Z</time>
      </trkpt>
      <trkpt lat="47.54451" lon="7.17066">
        <ele>378</ele>
        <time>2018-01-10T12:09:02Z</time>
      </trkpt>
      <trkpt lat="47.54433" lon="7.17081">
        <ele>379.69</ele>
        <time>2018-01-10T12:09:12Z</time>
      </trkpt>
      <trkpt lat="47.54423" lon="7.17106">
        <ele>376.89</ele>
        <time>2018-01-10T12:09:22Z</time>
      </trkpt>
      <trkpt lat="47.54411" lon="7.1713">
        <ele>377.49</ele>
        <time>2018-01-10T12:09:34Z</time>
      </trkpt>
      <trkpt lat="47.54398" lon="7.17153">
        <ele>378.7</ele>
        <time>2018-01-10T12:09:46Z</time>
      </trkpt>
      <trkpt lat="47.54382" lon="7.17171">
        <ele>378.79</ele>
        <time>2018-01-10T12:09:56Z</time>
      </trkpt>
      <trkpt lat="47.54369" lon="7.17191">
        <ele>380.06</ele>
        <time>2018-01-10T12:10:06Z</time>
      </trkpt>
      <trkpt lat="47.54356" lon="7.17213">
        <ele>378.82</ele>
        <time>2018-01-10T12:10:18Z</time>
      </trkpt>
      <trkpt lat="47.54344" lon="7.17235">
        <ele>380.49</ele>
        <time>2018-01-10T12:10:30Z</time>
      </trkpt>
      <trkpt lat="47.54331" lon="7.17259">
        <ele>381.49</ele>
        <time>2018-01-10T12:10:42Z</time>
      </trkpt>
      <trkpt lat="47.54322" lon="7.17285">
        <ele>381.55</ele>
        <time>2018-01-10T12:10:56Z</time>
      </trkpt>
      <trkpt lat="47.5431" lon="7.1731">
        <ele>381.62</ele>
        <time>2018-01-10T12:11:10Z</time>
      </trkpt>
      <trkpt lat="47.54293" lon="7.17329">
        <ele>382.88</ele>
        <time>2018-01-10T12:11:22Z</time>
      </trkpt>
      <trkpt lat="47.54283" lon="7.17352">
        <ele>383.85</ele>
        <time>2018-01-10T12:11:32Z</time>
      </trkpt>
      <trkpt lat="47.54271" lon="7.17372">
        <ele>382.88</ele>
        <time>2018-01-10T12:11:44Z</time>
      </trkpt>
      <trkpt lat="47.54256" lon="7.17394">
        <ele>381.82</ele>
        <time>2018-01-10T12:11:56Z</time>
      </trkpt>
      <trkpt lat="47.54244" lon="7.17414">
        <ele>382</ele>
        <time>2018-01-10T12:12:06Z</time>
      </trkpt>
      <trkpt lat="47.54229" lon="7.17436">
        <ele>381.15</ele>
        <time>2018-01-10T12:12:18Z</time>
      </trkpt>
      <trkpt lat="47.54216" lon="7.17456">
        <ele>380.1</ele>
        <time>2018-01-10T12:12:28Z</time>
      </trkpt>
      <trkpt lat="47.54202" lon="7.17478">
        <ele>380.72</ele>
        <time>2018-01-10T12:12:40Z</time>
      </trkpt>
      <trkpt lat="47.54191" lon="7.17499">
        <ele>379.71</ele>
        <time>2018-01-10T12:12:50Z</time>
      </trkpt>
      <trkpt lat="47.54178" lon="7.17524">
        <ele>381.49</ele>
        <time>2018-01-10T12:13:02Z</time>
      </trkpt>
      <trkpt lat="47.54166" lon="7.17544">
        <ele>381.6</ele>
        <time>2018-01-10T12:13:12Z</time>
      </trkpt>
      <trkpt lat="47.5415" lon="7.17566">
        <ele>382.48</ele>
        <time>2018-01-10T12:13:24Z</time>
      </trkpt>
      <trkpt lat="47.54137" lon="7.17586">
        <ele>381.79</ele>
        <time>2018-01-10T12:13:34Z</time>
      </trkpt>
      <trkpt lat="47.54124" lon="7.17608">
        <ele>382.7</ele>
        <time>2018-01-10T12:13:46Z</time>
      </trkpt>
      <trkpt lat="47.54115" lon="7.17634">
        <ele>381.79</ele>
        <time>2018-01-10T12:13:58Z</time>
      </trkpt>
      <trkpt lat="47.54106" lon="7.17657">
        <ele>382.49</ele>
        <time>2018-01-10T12:14:08Z</time>
      </trkpt>
      <trkpt lat="47.54095" lon="7.17681">
        <ele>381.79</ele>
        <time>2018-01-10T12:14:20Z</time>
      </trkpt>
      <trkpt lat="47.54076" lon="7.17678">
        <ele>381.79</ele>
        <time>2018-01-10T12:14:30Z</time>
      </trkpt>
      <trkpt lat="47.54054" lon="7.17672">
        <ele>381.81</ele>
        <time>2018-01-10T12:14:42Z</time>
      </trkpt>
      <trkpt lat="47.5404" lon="7.17655">
        <ele>378.91</ele>
        <time>2018-01-10T12:14:52Z</time>
      </trkpt>
      <trkpt lat="47.54027" lon="7.17634">
        <ele>377.09</ele>
        <time>2018-01-10T12:15:02Z</time>
      </trkpt>
      <trkpt lat="47.54012" lon="7.17614">
        <ele>376.11</ele>
        <time>2018-01-10T12:15:13Z</time>
      </trkpt>
      <trkpt lat="47.53997" lon="7.17592">
        <ele>375.85</ele>
        <time>2018-01-10T12:15:25Z</time>
      </trkpt>
      <trkpt lat="47.53983" lon="7.17576">
        <ele>374.88</ele>
        <time>2018-01-10T12:15:35Z</time>
      </trkpt>
      <trkpt lat="47.53967" lon="7.1756">
        <ele>374.79</ele>
        <time>2018-01-10T12:15:45Z</time>
      </trkpt>
      <trkpt lat="47.53955" lon="7.17536">
        <ele>374.79</ele>
        <time>2018-01-10T12:15:57Z</time>
      </trkpt>
      <trkpt lat="47.53941" lon="7.17519">
        <ele>374.72</ele>
        <time>2018-01-10T12:16:07Z</time>
      </trkpt>
      <trkpt lat="47.53928" lon="7.17495">
        <ele>374.76</ele>
        <time>2018-01-10T12:16:19Z</time>
      </trkpt>
      <trkpt lat="47.53917" lon="7.17471">
        <ele>373.79</ele>
        <time>2018-01-10T12:16:31Z</time>
      </trkpt>
      <trkpt lat="47.53909" lon="7.17446">
        <ele>373.79</ele>
        <time>2018-01-10T12:16:41Z</time>
      </trkpt>
      <trkpt lat="47.53899" lon="7.17423">
        <ele>373.81</ele>
        <time>2018-01-10T12:16:51Z</time>
      </trkpt>
      <trkpt lat="47.53887" lon="7.17402">
        <ele>372.82</ele>
        <time>2018-01-10T12:17:03Z</time>
      </trkpt>
      <trkpt lat="47.53871" lon="7.17388">
        <ele>371.82</ele>
        <time>2018-01-10T12:17:15Z</time>
      </trkpt>
      <trkpt lat="47.5387" lon="7.17359">
        <ele>371.71</ele>
        <time>2018-01-10T12:17:29Z</time>
      </trkpt>
      <trkpt lat="47.5388" lon="7.17335">
        <ele>370.8</ele>
        <time>2018-01-10T12:17:41Z</time>
      </trkpt>
      <trkpt lat="47.53891" lon="7.17312">
        <ele>369.72</ele>
        <time>2018-01-10T12:17:51Z</time>
      </trkpt>
      <trkpt lat="47.53903" lon="7.17288">
        <ele>369.79</ele>
        <time>2018-01-10T12:18:03Z</time>
      </trkpt>
      <trkpt lat="47.53916" lon="7.17267">
        <ele>368.8</ele>
        <time>2018-01-10T12:18:13Z</time>
      </trkpt>
      <trkpt lat="47.53927" lon="7.17245">
        <ele>369.79</ele>
        <time>2018-01-10T12:18:25Z</time>
      </trkpt>
      <trkpt lat="47.5394" lon="7.17222">
        <ele>370.78</ele>
        <time>2018-01-10T12:18:37Z</time>
      </trkpt>
      <trkpt lat="47.5396" lon="7.17225">
        <ele>372.78</ele>
        <time>2018-01-10T12:18:49Z</time>
      </trkpt>
      <trkpt lat="47.53977" lon="7.17235">
        <ele>372.79</ele>
        <time>2018-01-10T12:19:01Z</time>
      </trkpt>
      <trkpt lat="47.53995" lon="7.17245">
        <ele>373.02</ele>
        <time>2018-01-10T12:19:13Z</time>
      </trkpt>
      <trkpt lat="47.54009" lon="7.17226">
        <ele>372.79</ele>
        <time>2018-01-10T12:19:27Z</time>
      </trkpt>
      <trkpt lat="47.54024" lon="7.17204">
        <ele>373.7</ele>
        <time>2018-01-10T12:19:39Z</time>
      </trkpt>
      <trkpt lat="47.54036" lon="7.17179">
        <ele>371.89</ele>
        <time>2018-01-10T12:19:51Z</time>
      </trkpt>
      <trkpt lat="47.54048" lon="7.17154">
        <ele>369.88</ele>
        <time>2018-01-10T12:20:03Z</time>
      </trkpt>
      <trkpt lat="47.54058" lon="7.1713">
        <ele>368.88</ele>
        <time>2018-01-10T12:20:15Z</time>
      </trkpt>
      <trkpt lat="47.54071" lon="7.17106">
        <ele>367.88</ele>
        <time>2018-01-10T12:20:27Z</time>
      </trkpt>
      <trkpt lat="47.54089" lon="7.17091">
        <ele>367.79</ele>
        <time>2018-01-10T12:20:39Z</time>
      </trkpt>
      <trkpt lat="47.54102" lon="7.17072">
        <ele>367.79</ele>
        <time>2018-01-10T12:20:51Z</time>
      </trkpt>
      <trkpt lat="47.5412" lon="7.17058">
        <ele>367.78</ele>
        <time>2018-01-10T12:21:05Z</time>
      </trkpt>
      <trkpt lat="47.5414" lon="7.17061">
        <ele>368.78</ele>
        <time>2018-01-10T12:21:21Z</time>
      </trkpt>
      <trkpt lat="47.54144" lon="7.17087">
        <ele>377.87</ele>
        <time>2018-01-10T12:28:27Z</time>
      </trkpt>
    </trkseg>
  </trk>
</gpx>